CheckWX is a tool to help pilots better visualize weather data.  It is not intended as a substitute for an official pre-flight weather briefing.

06:39:13 UTC

KP69 METAR
Lowell Airport
Idaho, USA
Current

47 mins ago

KP69 230552Z AUTO 33004KT 09/08 A3019 RMK AO1 SLP221 T00940078 10167 20094 51017
Observed
Apr-23 @ 05:52 UTC
Wind
  • 330° at 4 KTS
Visibility
Temperature
C / 48°F
Dewpoint
C / 46°F
Humidity
94%
Altimeter
30.19" Hg
Pressure
1022.32 hPa
Previous

2 hours ago

KP69 230452Z AUTO 36003KT 10/08 A3018 RMK AO1 SLP218 T01000083
Observed
Apr-23 @ 04:52 UTC
Wind
  • 360° at 3 KTS
Visibility
Temperature
10°C / 50°F
Dewpoint
C / 46°F
Humidity
88%
Altimeter
30.18" Hg
Pressure
1022.02 hPa
Previous

3 hours ago

KP69 230352Z AUTO 36004KT 11/08 A3016 RMK AO1 SLP215 T01060083
Observed
Apr-23 @ 03:52 UTC
Wind
  • 360° at 4 KTS
Visibility
Temperature
11°C / 52°F
Dewpoint
C / 46°F
Humidity
82%
Altimeter
30.16" Hg
Pressure
1021.32 hPa